Time;durP1;ratioP1;P1;durP2;ratioP2;P2;SDS_P1;SDS_P2;PMS_P1;PMS_P2;Temp;Humidity;BMP_temperature;BMP_pressure;BME280_temperature;BME280_humidity;BME280_pressure;Samples;Min_cycle;Max_cycle;Signal;HPM_P1;HPM_P2
2020/12/27 00:01:04;;;;;;;9.68;4.32;;;;;;;6.26;78.13;100588.38;4974225;28;20039;-66
2020/12/27 00:03:31;;;;;;;8.65;4.30;;;;;;;6.24;76.30;100576.91;4974084;28;20059;-67
2020/12/27 00:05:58;;;;;;;10.85;4.22;;;;;;;6.21;76.38;100579.41;4973793;28;20051;-67
2020/12/27 00:08:25;;;;;;;11.82;4.30;;;;;;;6.26;75.77;100565.72;4973523;28;20049;-66
2020/12/27 00:10:52;;;;;;;6.60;3.90;;;;;;;6.13;75.84;100550.78;4988540;28;20077;-68
2020/12/27 00:13:19;;;;;;;9.02;4.60;;;;;;;6.25;76.29;100536.72;4973086;28;20062;-65
2020/12/27 00:15:46;;;;;;;7.65;3.75;;;;;;;6.21;76.24;100530.19;4973809;28;20054;-66
2020/12/27 00:18:13;;;;;;;11.30;5.43;;;;;;;6.05;76.57;100520.53;4973506;28;20054;-67
2020/12/27 00:20:40;;;;;;;12.15;6.53;;;;;;;6.03;76.92;100517.25;4972940;28;20398;-67
2020/12/27 00:23:07;;;;;;;12.50;6.43;;;;;;;6.04;76.97;100497.84;4973622;28;20058;-67
2020/12/27 00:25:38;;;;;;;8.05;3.50;;;;;;;6.22;76.72;100491.63;4974069;28;20055;-67
2020/12/27 00:28:05;;;;;;;5.53;3.58;;;;;;;6.05;77.44;100472.13;4973441;28;20105;-68
2020/12/27 00:30:32;;;;;;;6.45;3.03;;;;;;;6.10;77.38;100463.84;4973111;28;20051;-67
2020/12/27 00:32:59;;;;;;;6.32;3.60;;;;;;;6.17;77.18;100452.59;4973927;28;20066;-67
2020/12/27 00:35:26;;;;;;;5.43;3.10;;;;;;;6.15;77.10;100444.69;4973565;28;20055;-66
2020/12/27 00:37:54;;;;;;;6.95;2.63;;;;;;;6.24;77.57;100429.25;4973521;28;20509;-67
2020/12/27 00:40:25;;;;;;;4.80;2.90;;;;;;;6.15;77.51;100394.66;4973322;28;20086;-66
2020/12/27 00:42:52;;;;;;;5.57;2.78;;;;;;;6.14;78.23;100382.88;4973511;28;20055;-68
2020/12/27 00:45:19;;;;;;;6.13;2.58;;;;;;;6.06;78.69;100371.78;4973096;28;20387;-66
2020/12/27 00:47:46;;;;;;;7.90;2.95;;;;;;;6.17;77.89;100357.69;4956499;28;20046;-66
2020/12/27 00:50:13;;;;;;;6.43;2.63;;;;;;;6.17;77.55;100363.16;4973684;28;20050;-67
2020/12/27 00:52:40;;;;;;;6.82;2.90;;;;;;;6.34;77.81;100349.81;4976036;28;20051;-67
2020/12/27 00:55:07;;;;;;;7.50;3.17;;;;;;;6.27;77.33;100343.91;4959980;28;20051;-67
2020/12/27 00:57:35;;;;;;;4.88;2.85;;;;;;;6.35;77.26;100334.19;4976256;28;20380;-65
2020/12/27 01:00:03;;;;;;;6.53;2.88;;;;;;;6.52;76.95;100331.78;4992353;28;20055;-67
2020/12/27 01:02:31;;;;;;;5.85;2.80;;;;;;;6.54;76.93;100319.41;4959561;28;20414;-68
2020/12/27 01:05:30;;;;;;;5.65;2.50;;;;;;;6.29;77.76;100294.38;4977480;28;20066;-67
2020/12/27 01:08:00;;;;;;;6.57;2.88;;;;;;;6.30;78.81;100293.25;4975867;28;20055;-66
2020/12/27 01:10:27;;;;;;;5.72;3.45;;;;;;;6.35;78.50;100280.31;4993811;28;20402;-66
2020/12/27 01:12:54;;;;;;;4.03;2.70;;;;;;;6.37;78.76;100278.09;4975758;28;20062;-66
2020/12/27 01:15:21;;;;;;;5.82;2.85;;;;;;;6.24;79.69;100267.09;4992458;28;20047;-68
2020/12/27 01:18:09;;;;;;;6.15;2.88;;;;;;;6.34;79.52;100245.88;4973853;28;20051;-66
2020/12/27 01:20:43;;;;;;;5.40;2.70;;;;;;;6.31;79.12;100230.03;4992551;28;20057;-69
2020/12/27 01:23:10;;;;;;;5.10;2.70;;;;;;;6.30;79.52;100227.59;4979071;28;20517;-67
2020/12/27 01:25:38;;;;;;;6.68;2.80;;;;;;;6.23;79.61;100218.97;4959843;28;20051;-69
2020/12/27 01:28:06;;;;;;;5.53;2.65;;;;;;;6.28;79.51;100200.56;4991768;28;20058;-68
2020/12/27 01:30:36;;;;;;;4.22;2.40;;;;;;;6.45;79.09;100195.34;4991337;28;20051;-67
2020/12/27 01:33:07;;;;;;;5.70;2.35;;;;;;;6.29;79.86;100176.78;4974586;28;20055;-66
2020/12/27 01:35:46;;;;;;;5.10;2.17;;;;;;;6.21;80.32;100167.31;4991872;28;20054;-68
2020/12/27 01:38:15;;;;;;;4.80;2.22;;;;;;;6.30;80.01;100164.72;4991442;28;20057;-67
2020/12/27 01:40:42;;;;;;;4.05;2.00;;;;;;;6.34;80.04;100165.75;4976252;28;20065;-65
2020/12/27 01:43:11;;;;;;;4.05;2.13;;;;;;;6.51;79.23;100141.38;4990785;28;20051;-67
2020/12/27 01:45:38;;;;;;;4.38;2.10;;;;;;;6.61;78.77;100122.03;4976740;28;20049;-66
2020/12/27 01:48:12;;;;;;;8.25;2.22;;;;;;;6.58;78.23;100119.91;4974335;28;20047;-66
2020/12/27 01:50:42;;;;;;;4.85;1.90;;;;;;;6.63;78.37;100115.16;4992086;28;20483;-67
2020/12/27 01:53:15;;;;;;;3.10;1.73;;;;;;;6.53;78.32;100098.94;4991122;28;20054;-69
2020/12/27 01:55:42;;;;;;;3.70;1.80;;;;;;;6.54;78.18;100119.69;4991582;28;20057;-69
2020/12/27 01:58:19;;;;;;;3.10;1.60;;;;;;;6.62;78.16;100090.84;4991161;28;20057;-66
2020/12/27 02:01:13;;;;;;;5.00;1.88;;;;;;;6.59;78.51;100077.78;4973048;28;20059;-67
2020/12/27 02:03:50;;;;;;;5.53;1.90;;;;;;;6.51;78.64;100068.31;4990718;28;20046;-67
2020/12/27 02:06:34;;;;;;;4.32;1.85;;;;;;;6.62;77.86;100052.53;4973092;28;20050;-68
2020/12/27 02:09:12;;;;;;;7.53;1.95;;;;;;;6.61;78.17;100051.72;4991050;28;20057;-69
2020/12/27 02:12:05;;;;;;;4.03;2.00;;;;;;;6.63;78.33;100054.13;4958827;28;20057;-66
2020/12/27 02:14:36;;;;;;;4.97;1.95;;;;;;;6.66;78.22;100059.00;4990370;28;20399;-68
2020/12/27 02:17:05;;;;;;;4.13;1.70;;;;;;;6.73;78.00;100026.56;4990709;28;20410;-69
2020/12/27 02:19:48;;;;;;;5.60;1.90;;;;;;;6.67;77.91;100019.59;4990601;28;20518;-65
2020/12/27 02:22:27;;;;;;;3.47;1.52;;;;;;;6.76;77.76;100024.03;4958835;28;20051;-67
2020/12/27 02:29:25;;;;;;;4.35;1.70;;;;;;;6.68;77.78;99989.19;4975703;28;20392;-65
2020/12/27 02:31:56;;;;;;;4.35;2.20;;;;;;;6.76;78.01;99974.75;4975365;28;20058;-67
2020/12/27 02:34:23;;;;;;;5.00;1.80;;;;;;;6.63;78.10;99950.97;4974274;28;20058;-67
2020/12/27 02:36:51;;;;;;;4.43;1.95;;;;;;;6.70;77.76;99945.09;4990243;28;20055;-67
2020/12/27 02:39:23;;;;;;;5.35;1.92;;;;;;;6.77;77.51;99932.63;4958270;28;20047;-67
2020/12/27 02:41:51;;;;;;;5.15;2.05;;;;;;;6.66;78.29;99935.84;4975048;28;20054;-66
2020/12/27 02:44:25;;;;;;;5.93;2.05;;;;;;;6.89;77.98;99920.31;4990108;28;20054;-66
2020/12/27 02:47:27;;;;;;;5.60;2.10;;;;;;;6.89;77.89;99899.22;4975147;28;20058;-66
2020/12/27 02:50:16;;;;;;;4.00;1.77;;;;;;;6.71;78.25;99892.78;4941105;28;20047;-65
2020/12/27 02:52:45;;;;;;;5.05;1.98;;;;;;;6.74;77.89;99875.75;4989343;28;20051;-66
2020/12/27 02:55:12;;;;;;;4.43;1.70;;;;;;;6.75;78.29;99850.00;4990001;28;20053;-65
2020/12/27 02:57:52;;;;;;;7.63;2.10;;;;;;;6.69;78.41;99834.03;4976582;28;20047;-66
2020/12/27 03:00:22;;;;;;;9.97;2.03;;;;;;;6.84;78.18;99817.22;4973598;28;20142;-65
2020/12/27 03:03:12;;;;;;;5.80;1.70;;;;;;;6.81;77.92;99812.38;4915164;29;20056;-69
2020/12/27 03:05:44;;;;;;;5.30;1.90;;;;;;;6.63;78.44;99802.41;4914298;29;20052;-68
2020/12/27 03:08:12;;;;;;;6.72;1.85;;;;;;;6.73;77.97;99785.75;4899813;29;20063;-66
2020/12/27 03:15:10;;;;;;;3.75;1.60;;;;;;;6.76;78.46;99755.81;4914855;29;20076;-67
2020/12/27 03:17:57;;;;;;;5.30;2.05;;;;;;;7.01;77.92;99751.63;4915997;29;20044;-67
2020/12/27 03:20:54;;;;;;;5.07;1.90;;;;;;;6.90;78.05;99728.41;4896519;29;20246;-69
2020/12/27 03:23:24;;;;;;;7.97;2.05;;;;;;;7.15;77.88;99729.66;4895949;29;20064;-69
2020/12/27 03:30:21;;;;;;;3.97;1.90;;;;;;;6.70;78.65;99685.94;4895360;29;20048;-66
2020/12/27 03:32:48;;;;;;;3.20;1.58;;;;;;;6.91;78.11;99666.22;4895606;29;20056;-67
2020/12/27 03:35:16;;;;;;;3.58;1.60;;;;;;;6.82;78.65;99663.47;4895606;29;20556;-67
2020/12/27 03:37:44;;;;;;;3.67;1.95;;;;;;;6.88;78.16;99656.75;4896030;29;20056;-67
2020/12/27 03:44:54;;;;;;;7.60;1.88;;;;;;;6.95;78.61;99623.44;4914909;29;20056;-67
2020/12/27 03:47:50;;;;;;;5.00;2.00;;;;;;;7.13;77.91;99620.44;4914880;29;20423;-66
2020/12/27 03:50:32;;;;;;;5.82;1.80;;;;;;;7.00;78.28;99615.06;4930573;29;20531;-66
2020/12/27 03:52:59;;;;;;;7.80;2.15;;;;;;;6.76;79.34;99621.72;4930360;29;20092;-65
2020/12/27 04:00:30;;;;;;;4.57;1.90;;;;;;;7.25;78.42;99615.19;4988259;28;20490;-64
2020/12/27 04:03:12;;;;;;;5.43;2.13;;;;;;;7.17;77.62;99612.38;5003176;28;20047;-67
2020/12/27 04:05:43;;;;;;;6.75;2.10;;;;;;;7.01;77.83;99603.81;4973132;28;20055;-68
2020/12/27 04:08:11;;;;;;;6.47;2.00;;;;;;;6.91;77.86;99614.22;4989002;28;20069;-68
2020/12/27 04:15:07;;;;;;;6.13;1.90;;;;;;;7.13;78.09;99600.47;4974024;28;20061;-67
2020/12/27 04:17:48;;;;;;;6.22;2.03;;;;;;;7.09;77.42;99583.06;4988503;28;20058;-68
2020/12/27 04:20:18;;;;;;;6.68;2.00;;;;;;;7.02;77.68;99579.97;4988843;28;20393;-69
2020/12/27 04:22:49;;;;;;;9.82;2.20;;;;;;;7.01;77.34;99578.38;4989110;28;20054;-66
2020/12/27 04:25:20;;;;;;;10.02;2.20;;;;;;;6.95;78.19;99574.16;4988343;28;20051;-69
2020/12/27 04:27:47;;;;;;;6.53;1.85;;;;;;;7.05;77.86;99549.22;4992919;28;20055;-66
2020/12/27 04:30:16;;;;;;;9.77;2.20;;;;;;;7.13;77.78;99554.72;4993069;28;20058;-69
2020/12/27 04:33:14;;;;;;;4.88;2.03;;;;;;;7.28;77.98;99539.78;4976743;28;20051;-68
2020/12/27 04:36:08;;;;;;;8.98;2.33;;;;;;;7.18;77.20;99538.16;4991750;28;20052;-67
2020/12/27 04:38:35;;;;;;;6.43;2.20;;;;;;;7.17;77.57;99554.88;4992764;28;20406;-67
2020/12/27 04:45:38;;;;;;;6.57;1.80;;;;;;;7.21;77.62;99514.78;4958395;29;20059;-66
2020/12/27 04:48:17;;;;;;;5.97;2.33;;;;;;;7.04;78.30;99501.09;4956569;29;20048;-68
2020/12/27 04:51:12;;;;;;;5.88;2.05;;;;;;;7.06;78.05;99501.56;4954628;28;20059;-68
2020/12/27 04:53:44;;;;;;;4.88;1.80;;;;;;;6.96;78.43;99488.97;4955832;29;20399;-65
2020/12/27 05:00:57;;;;;;;4.03;1.67;;;;;;;7.08;78.07;99467.25;4958178;29;20051;-67
2020/12/27 05:03:36;;;;;;;6.63;2.22;;;;;;;6.95;78.61;99457.28;4972869;28;20047;-68
2020/12/27 05:06:02;;;;;;;5.15;1.90;;;;;;;7.05;78.63;99454.22;4957650;29;20047;-68
2020/12/27 05:08:29;;;;;;;5.53;1.80;;;;;;;6.96;79.00;99431.50;4940854;29;20055;-66
2020/12/27 05:11:03;;;;;;;4.78;2.08;;;;;;;7.10;78.32;99437.63;4956419;29;20051;-66
2020/12/27 05:13:31;;;;;;;4.40;1.70;;;;;;;7.12;78.15;99434.56;4940665;29;20051;-67
2020/12/27 05:16:14;;;;;;;4.60;1.77;;;;;;;7.14;77.90;99424.09;4956564;29;20498;-68
2020/12/27 05:18:59;;;;;;;5.20;1.80;;;;;;;7.15;78.30;99399.13;4956549;29;20444;-68
2020/12/27 05:21:37;;;;;;;7.97;2.40;;;;;;;7.21;78.74;99394.31;4973337;28;20051;-67
2020/12/27 05:24:14;;;;;;;6.10;2.08;;;;;;;7.31;78.63;99394.78;4972761;28;20062;-69
2020/12/27 05:26:54;;;;;;;6.65;2.20;;;;;;;7.35;78.46;99376.56;4955941;29;20052;-67
2020/12/27 05:29:43;;;;;;;5.13;2.40;;;;;;;7.17;79.83;99374.97;4955899;29;20058;-67
2020/12/27 05:32:33;;;;;;;6.00;2.20;;;;;;;7.23;79.18;99350.97;4957334;29;20058;-66
2020/12/27 05:35:19;;;;;;;5.88;2.20;;;;;;;7.20;79.69;99349.66;4957316;29;20058;-66
2020/12/27 05:38:20;;;;;;;5.43;2.63;;;;;;;7.35;79.42;99345.63;4954436;28;20052;-68
2020/12/27 05:45:33;;;;;;;11.38;2.55;;;;;;;7.45;79.13;99315.16;4956900;29;20047;-67
2020/12/27 05:48:01;;;;;;;5.32;2.22;;;;;;;7.45;79.39;99299.53;4971858;28;20067;-68
2020/12/27 05:50:30;;;;;;;5.97;2.05;;;;;;;7.10;80.19;99300.72;4955753;29;20051;-66
2020/12/27 05:53:00;;;;;;;4.20;2.10;;;;;;;7.22;80.02;99291.88;4971569;28;20047;-65
2020/12/27 05:55:39;;;;;;;6.13;2.60;;;;;;;7.36;79.99;99289.72;4972052;28;20047;-65
2020/12/27 05:58:09;;;;;;;8.05;1.90;;;;;;;7.22;80.32;99265.25;4939919;29;20051;-67
2020/12/27 06:00:41;;;;;;;3.97;1.80;;;;;;;7.17;80.50;99267.38;4972196;28;20052;-66
2020/12/27 06:03:17;;;;;;;6.25;1.85;;;;;;;7.29;80.43;99254.63;4955653;29;20051;-67
2020/12/27 06:06:03;;;;;;;6.47;1.92;;;;;;;7.31;80.34;99262.50;4971243;28;20538;-65
2020/12/27 06:08:52;;;;;;;3.13;1.50;;;;;;;7.47;79.65;99245.22;4972088;28;20054;-67
2020/12/27 06:15:55;;;;;;;4.55;1.60;;;;;;;7.61;79.56;99203.88;4939547;29;20058;-68
2020/12/27 06:18:58;;;;;;;4.35;1.55;;;;;;;7.45;81.21;99211.88;4955360;29;20059;-68
2020/12/27 06:21:40;;;;;;;4.68;1.58;;;;;;;7.49;80.64;99198.31;4954205;29;20055;-66
2020/12/27 06:24:12;;;;;;;3.40;1.60;;;;;;;7.56;80.28;99185.72;4939275;29;20407;-67
2020/12/27 06:31:23;;;;;;;4.95;1.25;;;;;;;7.63;79.10;99157.78;4956001;29;20055;-67
2020/12/27 06:34:13;;;;;;;3.92;1.20;;;;;;;7.40;79.72;99137.28;4937552;29;20067;-66
2020/12/27 06:36:53;;;;;;;3.20;1.30;;;;;;;7.45;79.84;99134.34;4921910;29;20051;-66
2020/12/27 06:39:30;;;;;;;2.85;1.17;;;;;;;7.36;80.40;99120.72;4937738;29;20059;-67
2020/12/27 06:42:15;;;;;;;2.05;1.10;;;;;;;7.50;79.51;99118.53;4937376;29;20072;-69
2020/12/27 06:45:30;;;;;;;2.30;0.90;;;;;;;7.54;79.25;99114.00;4939146;29;20055;-69
2020/12/27 06:48:37;;;;;;;2.83;1.10;;;;;;;7.42;79.72;99080.25;4886311;29;20060;-68
2020/12/27 06:51:39;;;;;;;;;;;;;;;7.41;79.10;99079.44;4860245;29;20064;-69
2020/12/27 06:54:10;;;;;;;2.75;1.10;;;;;;;7.52;79.50;99050.50;4829778;29;19939;-69
2020/12/27 07:00:40;;;;;;;2.55;0.90;;;;;;;7.57;78.71;99028.41;4859254;29;20060;-67
2020/12/27 07:03:21;;;;;;;1.48;0.70;;;;;;;7.62;77.99;99025.44;4844279;29;20469;-69
2020/12/27 07:05:50;;;;;;;2.70;0.70;;;;;;;7.60;78.33;99021.47;4843919;29;20508;-68
2020/12/27 07:08:43;;;;;;;3.25;0.88;;;;;;;7.66;78.65;99009.13;4858375;29;20054;-70
2020/12/27 07:15:23;;;;;;;2.53;1.08;;;;;;;7.63;78.77;98985.16;4859301;29;20053;-68
2020/12/27 07:17:53;;;;;;;2.83;1.00;;;;;;;7.61;78.90;98990.16;4874632;29;20054;-68
2020/12/27 07:20:21;;;;;;;;;;;;;;;7.54;79.32;98968.00;4891575;29;20621;-68
2020/12/27 07:22:54;;;;;;;3.35;1.10;;;;;;;7.54;79.57;98951.56;4911319;29;19923;-67
2020/12/27 07:25:22;;;;;;;3.03;1.23;;;;;;;7.43;80.07;98933.91;4895910;29;20068;-66
2020/12/27 07:27:50;;;;;;;1.70;1.00;;;;;;;7.60;79.59;98939.25;4938163;29;20058;-68
2020/12/27 07:30:18;;;;;;;2.45;1.40;;;;;;;7.53;79.09;98909.66;4956001;29;20047;-65
2020/12/27 07:32:50;;;;;;;4.15;1.27;;;;;;;7.71;79.24;98924.78;4970091;28;20055;-67
2020/12/27 07:35:22;;;;;;;2.83;1.40;;;;;;;7.51;79.01;98914.69;4955164;29;20055;-68
2020/12/27 07:37:59;;;;;;;4.32;1.27;;;;;;;7.49;79.78;98916.16;4954581;29;20391;-69
2020/12/27 07:40:34;;;;;;;2.58;1.00;;;;;;;7.57;79.40;98890.59;4955192;29;20426;-68
2020/12/27 07:43:03;;;;;;;4.53;1.02;;;;;;;7.62;79.47;98906.81;4953889;29;20380;-68
2020/12/27 07:45:30;;;;;;;5.50;1.40;;;;;;;7.83;78.85;98866.47;4972999;28;20062;-66
2020/12/27 07:47:56;;;;;;;2.95;1.20;;;;;;;7.66;78.86;98850.22;4974646;28;20058;-65
2020/12/27 07:50:25;;;;;;;5.72;1.55;;;;;;;7.55;79.09;98865.50;4974955;28;20061;-69
2020/12/27 07:53:00;;;;;;;3.67;1.27;;;;;;;7.63;78.92;98845.44;4974929;28;20051;-68
2020/12/27 07:55:34;;;;;;;3.80;1.50;;;;;;;7.82;78.18;98829.25;4974767;28;20065;-66
2020/12/27 07:58:06;;;;;;;4.13;1.27;;;;;;;7.78;78.77;98817.34;4973971;28;20049;-67
2020/12/27 08:00:35;;;;;;;3.28;1.35;;;;;;;7.92;78.09;98807.66;4973481;28;20491;-66
2020/12/27 08:03:10;;;;;;;5.00;1.30;;;;;;;7.98;78.08;98764.38;4974213;28;20055;-66
2020/12/27 08:05:38;;;;;;;4.90;1.40;;;;;;;7.88;77.88;98754.66;4974317;28;20047;-65
2020/12/27 08:08:06;;;;;;;4.63;1.95;;;;;;;7.82;78.79;98761.53;4973952;28;20043;-67
2020/12/27 08:10:33;;;;;;;5.85;1.50;;;;;;;7.78;79.08;98757.88;4973874;28;20391;-65
2020/12/27 08:13:01;;;;;;;4.00;1.33;;;;;;;7.88;78.40;98735.47;4973866;28;20051;-66
2020/12/27 08:15:30;;;;;;;5.97;1.73;;;;;;;7.85;78.41;98733.44;4973897;28;20066;-66
2020/12/27 08:18:04;;;;;;;4.80;1.63;;;;;;;7.98;78.42;98728.75;4974278;28;20054;-66
2020/12/27 08:20:43;;;;;;;4.50;1.30;;;;;;;8.07;78.32;98734.91;4974290;28;20050;-65
2020/12/27 08:23:10;;;;;;;5.45;1.75;;;;;;;8.20;77.74;98695.34;4974023;28;20506;-67
2020/12/27 08:25:40;;;;;;;4.40;1.33;;;;;;;8.04;77.78;98691.72;4974172;28;20054;-66
2020/12/27 08:28:10;;;;;;;4.57;1.30;;;;;;;8.23;77.65;98678.19;4988584;28;20059;-67
2020/12/27 08:30:37;;;;;;;5.15;1.52;;;;;;;8.26;76.98;98683.03;4973722;28;20058;-65
2020/12/27 08:33:27;;;;;;;5.55;1.50;;;;;;;8.23;76.99;98658.19;4973652;28;20049;-67
2020/12/27 08:35:56;;;;;;;3.33;1.30;;;;;;;8.53;76.34;98645.75;4973591;28;20077;-67
2020/12/27 08:38:50;;;;;;;3.05;1.23;;;;;;;8.33;76.35;98639.34;4972924;28;20077;-65
2020/12/27 08:41:23;;;;;;;8.07;1.48;;;;;;;8.34;77.16;98632.69;4972344;28;20061;-66
2020/12/27 08:43:56;;;;;;;4.72;1.27;;;;;;;8.25;77.15;98623.81;4969037;28;20402;-66
2020/12/27 08:46:31;;;;;;;7.50;1.63;;;;;;;8.35;77.03;98628.03;4973953;28;20057;-67
2020/12/27 08:49:10;;;;;;;5.68;1.55;;;;;;;8.35;77.63;98604.09;4974134;28;20062;-68
2020/12/27 08:51:50;;;;;;;4.80;1.50;;;;;;;8.28;77.46;98579.22;4987517;28;20487;-68
2020/12/27 08:54:18;;;;;;;4.20;1.30;;;;;;;8.23;77.54;98579.44;4973660;28;20051;-65
2020/12/27 09:01:26;;;;;;;5.75;1.45;;;;;;;8.20;77.59;98539.03;4973587;28;20043;-66
2020/12/27 09:03:52;;;;;;;7.32;1.30;;;;;;;8.33;77.74;98520.59;4973826;28;20050;-67
2020/12/27 09:06:20;;;;;;;12.85;1.42;;;;;;;8.43;77.01;98509.91;4974741;28;20055;-66
2020/12/27 09:08:59;;;;;;;4.63;1.45;;;;;;;8.32;77.83;98473.16;4973339;28;20070;-66
2020/12/27 09:11:27;;;;;;;5.88;1.35;;;;;;;8.23;77.12;98485.44;4973638;28;20058;-67
2020/12/27 09:18:30;;;;;;;5.35;1.25;;;;;;;8.17;78.14;98457.47;4977532;28;20054;-65
2020/12/27 09:20:59;;;;;;;4.18;1.48;;;;;;;8.26;77.76;98427.97;4976658;28;20054;-66
2020/12/27 09:23:25;;;;;;;4.60;1.05;;;;;;;8.40;77.13;98433.81;4976378;28;20047;-67
2020/12/27 09:26:05;;;;;;;4.07;1.33;;;;;;;8.33;77.54;98405.41;4976653;28;20067;-67
2020/12/27 09:32:59;;;;;;;3.38;1.00;;;;;;;8.34;77.76;98374.88;4977134;28;20054;-66
2020/12/27 09:35:28;;;;;;;14.80;5.43;;;;;;;8.55;77.39;98382.81;4958740;28;20047;-64
2020/12/27 09:37:55;;;;;;;3.78;1.40;;;;;;;8.33;77.12;98353.28;4976748;28;20055;-66
2020/12/27 09:40:34;;;;;;;9.13;1.50;;;;;;;8.47;76.83;98337.16;4976729;28;20046;-66
2020/12/27 09:47:30;;;;;;;6.55;1.85;;;;;;;8.24;77.86;98333.47;4959979;28;20039;-65
2020/12/27 09:50:07;;;;;;;4.80;1.95;;;;;;;8.44;78.00;98324.16;4977471;28;20479;-66
2020/12/27 09:52:47;;;;;;;7.18;1.30;;;;;;;8.47;77.37;98317.97;4976471;28;20406;-65
2020/12/27 09:55:14;;;;;;;3.90;1.17;;;;;;;8.55;77.18;98323.25;4976323;28;20057;-65
2020/12/27 10:02:09;;;;;;;5.43;1.05;;;;;;;8.63;77.70;98302.25;4975875;28;20402;-63
2020/12/27 10:04:36;;;;;;;4.05;1.25;;;;;;;8.71;76.96;98277.34;4976669;28;20051;-66
2020/12/27 10:07:03;;;;;;;4.57;1.10;;;;;;;8.64;77.09;98255.25;4976480;28;20051;-65
2020/12/27 10:09:31;;;;;;;5.47;1.30;;;;;;;8.74;76.82;98259.34;4976335;28;20059;-65
2020/12/27 10:16:26;;;;;;;7.47;2.80;;;;;;;8.74;76.91;98256.59;4975477;28;20082;-67
2020/12/27 10:18:53;;;;;;;6.47;1.70;;;;;;;8.69;77.48;98246.72;4975283;28;20596;-67
2020/12/27 10:21:23;;;;;;;6.72;2.60;;;;;;;8.84;76.76;98237.63;4975988;28;20058;-68
2020/12/27 10:24:08;;;;;;;5.57;1.33;;;;;;;8.76;76.77;98211.19;4967327;28;20066;-67
2020/12/27 10:26:35;;;;;;;6.13;1.42;;;;;;;8.83;77.03;98197.63;4975556;28;20050;-68
2020/12/27 10:29:02;;;;;;;3.58;1.25;;;;;;;8.87;76.77;98194.94;4975752;28;20380;-69
2020/12/27 10:31:28;;;;;;;3.55;1.17;;;;;;;9.01;76.70;98176.00;4975506;28;20051;-67
2020/12/27 10:33:57;;;;;;;4.70;1.42;;;;;;;8.81;76.87;98168.94;4975688;28;20131;-68
2020/12/27 10:36:23;;;;;;;4.75;2.10;;;;;;;8.75;77.17;98151.19;4975556;28;20054;-69
2020/12/27 10:38:50;;;;;;;6.43;1.80;;;;;;;8.72;78.10;98129.94;4975240;28;20062;-68
2020/12/27 10:41:17;;;;;;;4.13;1.20;;;;;;;8.79;77.43;98141.03;4975256;28;20050;-67
2020/12/27 10:43:51;;;;;;;5.65;1.25;;;;;;;8.83;77.05;98136.44;4974999;28;20055;-70
2020/12/27 10:46:18;;;;;;;4.38;1.10;;;;;;;8.78;77.54;98112.81;4975572;28;20066;-68
2020/12/27 10:48:47;;;;;;;3.67;1.08;;;;;;;8.81;77.45;98128.56;4975759;28;20046;-68
2020/12/27 10:51:14;;;;;;;3.22;1.05;;;;;;;8.84;76.76;98094.88;4976082;28;20053;-69
2020/12/27 10:53:41;;;;;;;3.17;1.00;;;;;;;8.88;76.02;98073.78;4989962;28;20043;-64
2020/12/27 10:56:08;;;;;;;5.80;1.40;;;;;;;8.64;76.96;98074.16;4975415;28;20061;-69
2020/12/27 10:58:35;;;;;;;2.45;1.00;;;;;;;8.77;77.14;98056.34;4973816;28;20398;-68
2020/12/27 11:01:02;;;;;;;4.93;1.30;;;;;;;8.59;76.84;98082.69;4974845;28;20051;-70
2020/12/27 11:03:29;;;;;;;5.70;1.02;;;;;;;8.53;77.14;98044.91;4973606;28;20058;-68
2020/12/27 11:05:56;;;;;;;3.40;1.05;;;;;;;8.48;77.58;98054.25;4974587;28;20063;-70
2020/12/27 11:08:23;;;;;;;7.40;1.98;;;;;;;8.62;77.17;98031.75;4974641;28;20054;-69
2020/12/27 11:10:50;;;;;;;6.32;2.30;;;;;;;8.55;78.10;98013.22;4989370;28;20050;-70
2020/12/27 11:13:17;;;;;;;12.45;6.13;;;;;;;8.62;77.48;98004.31;4974816;28;20054;-71
2020/12/27 11:15:44;;;;;;;6.15;2.05;;;;;;;8.72;77.92;98000.97;4974248;28;20065;-68
2020/12/27 11:18:11;;;;;;;3.35;1.13;;;;;;;8.71;77.46;97999.38;4974329;28;20398;-66
2020/12/27 11:20:38;;;;;;;2.90;1.13;;;;;;;8.55;77.66;98001.47;4974873;28;20483;-68
2020/12/27 11:23:05;;;;;;;2.88;1.00;;;;;;;8.60;77.68;97976.47;4974845;28;20372;-68
2020/12/27 11:25:32;;;;;;;3.97;1.63;;;;;;;8.38;77.90;97952.56;4974437;28;20065;-68
2020/12/27 11:27:59;;;;;;;2.45;1.13;;;;;;;8.54;77.95;97934.81;4974289;28;20054;-67
2020/12/27 11:30:26;;;;;;;3.22;1.05;;;;;;;8.57;77.62;97925.88;4974548;28;20046;-68
2020/12/27 11:32:53;;;;;;;3.72;1.40;;;;;;;8.64;77.74;97926.00;4972954;28;20058;-69
2020/12/27 11:35:20;;;;;;;3.22;0.90;;;;;;;8.83;76.79;97908.63;4988946;28;20051;-68
2020/12/27 11:37:50;;;;;;;1.95;1.00;;;;;;;8.77;77.21;97897.16;4974436;28;20050;-68
2020/12/27 11:40:17;;;;;;;4.75;1.30;;;;;;;8.72;76.25;97869.25;4974365;28;20406;-68
2020/12/27 11:42:44;;;;;;;8.35;3.83;;;;;;;8.71;76.58;97867.66;4974022;28;20047;-66
2020/12/27 11:45:11;;;;;;;7.45;3.05;;;;;;;8.77;76.53;97828.56;4974108;28;20055;-65
2020/12/27 11:47:38;;;;;;;3.67;1.30;;;;;;;8.75;75.93;97847.34;4988169;28;20047;-68
2020/12/27 11:50:09;;;;;;;2.85;0.82;;;;;;;8.71;75.96;97834.75;4989078;28;20051;-68
2020/12/27 11:52:38;;;;;;;1.92;0.82;;;;;;;8.65;75.85;97827.97;4973677;28;20043;-66
2020/12/27 11:55:05;;;;;;;2.50;1.00;;;;;;;8.83;76.04;97816.09;4974738;28;20055;-66
2020/12/27 11:57:31;;;;;;;2.40;0.93;;;;;;;8.86;75.69;97800.81;4974274;28;20059;-71
2020/12/27 11:59:58;;;;;;;2.97;1.35;;;;;;;8.70;76.17;97790.03;4974380;28;20499;-68
2020/12/27 12:02:25;;;;;;;2.78;1.02;;;;;;;8.57;76.46;97780.47;4973048;28;20039;-68
2020/12/27 12:04:52;;;;;;;5.22;0.93;;;;;;;8.72;76.61;97787.72;4974189;28;20061;-65
2020/12/27 12:07:19;;;;;;;16.17;7.28;;;;;;;9.05;75.34;97760.28;4974012;28;20062;-67
2020/12/27 12:09:46;;;;;;;6.60;2.63;;;;;;;8.87;75.87;97753.03;4988936;28;20058;-66
2020/12/27 12:12:13;;;;;;;3.85;1.00;;;;;;;8.81;75.95;97769.03;4956176;28;20078;-68
2020/12/27 12:19:12;;;;;;;3.20;1.25;;;;;;;8.83;76.86;97706.31;4988853;28;20057;-69
2020/12/27 12:21:39;;;;;;;3.70;1.55;;;;;;;8.71;76.73;97690.13;4972477;28;20057;-67
2020/12/27 12:24:07;;;;;;;4.22;0.90;;;;;;;8.83;76.97;97659.66;4973501;28;20058;-69
2020/12/27 12:26:36;;;;;;;3.78;1.20;;;;;;;8.77;77.43;97677.63;4955514;28;20402;-71
2020/12/27 12:33:27;;;;;;;3.40;0.95;;;;;;;8.86;77.21;97636.16;4969404;28;20038;-67
2020/12/27 12:35:54;;;;;;;4.18;1.02;;;;;;;8.82;77.08;97619.66;4972247;28;20515;-69
2020/12/27 12:38:21;;;;;;;2.97;1.10;;;;;;;8.72;77.49;97631.31;4972905;28;20513;-68
2020/12/27 12:40:51;;;;;;;5.55;1.33;;;;;;;8.68;77.91;97608.53;4973507;28;20058;-67
2020/12/27 12:43:18;;;;;;;8.27;1.25;;;;;;;8.70;77.72;97608.94;4973656;28;20053;-65
2020/12/27 12:45:45;;;;;;;4.20;1.20;;;;;;;8.85;77.31;97601.66;4973145;28;20051;-66
2020/12/27 12:48:13;;;;;;;6.75;2.30;;;;;;;8.76;77.30;97588.25;4975507;28;20047;-69
2020/12/27 12:50:40;;;;;;;3.17;1.00;;;;;;;8.79;77.40;97586.69;4991448;28;20058;-66
2020/12/27 12:53:19;;;;;;;2.42;0.93;;;;;;;8.80;77.36;97567.09;4990192;28;20051;-67
2020/12/27 12:55:46;;;;;;;3.50;1.40;;;;;;;9.02;76.81;97563.38;4977197;28;20066;-67
2020/12/27 12:58:13;;;;;;;7.18;1.80;;;;;;;8.85;76.91;97558.53;4977713;28;20070;-69
2020/12/27 13:00:40;;;;;;;3.60;1.10;;;;;;;8.72;77.30;97551.75;4977120;28;20058;-66
2020/12/27 13:03:07;;;;;;;4.55;1.10;;;;;;;8.88;77.93;97526.78;4977121;28;20143;-66
2020/12/27 13:05:34;;;;;;;2.22;0.90;;;;;;;8.68;78.24;97539.94;4977214;28;20525;-68
2020/12/27 13:08:05;;;;;;;7.88;3.55;;;;;;;8.64;77.33;97530.09;4977294;28;20066;-68
2020/12/27 13:10:35;;;;;;;3.03;0.95;;;;;;;8.63;77.76;97520.31;4976286;28;20047;-68
2020/12/27 13:13:06;;;;;;;2.22;0.90;;;;;;;8.84;78.00;97524.00;4977623;28;20490;-67
2020/12/27 13:15:32;;;;;;;1.67;0.80;;;;;;;8.70;77.51;97498.44;4959740;28;20051;-67
2020/12/27 13:17:59;;;;;;;3.15;0.98;;;;;;;8.60;78.21;97507.34;4976664;28;20055;-67
2020/12/27 13:20:27;;;;;;;3.13;0.80;;;;;;;8.50;79.07;97502.53;4976872;28;20398;-66
2020/12/27 13:22:54;;;;;;;2.47;0.90;;;;;;;8.66;78.69;97508.56;4977147;28;20050;-67
2020/12/27 13:25:21;;;;;;;3.13;0.85;;;;;;;8.95;77.40;97486.47;4977111;28;20045;-67
2020/12/27 13:27:48;;;;;;;2.72;0.85;;;;;;;8.86;78.45;97509.91;4977158;28;20055;-67
2020/12/27 13:34:51;;;;;;;7.68;1.52;;;;;;;8.75;78.40;97482.38;4976594;28;20051;-66
2020/12/27 13:37:18;;;;;;;2.97;0.75;;;;;;;8.61;78.90;97486.97;4977056;28;20058;-68
2020/12/27 13:39:46;;;;;;;5.68;1.10;;;;;;;8.76;78.89;97485.91;4976290;28;20398;-67
2020/12/27 13:42:13;;;;;;;4.03;1.13;;;;;;;8.85;78.75;97469.94;4959125;28;20062;-66
2020/12/27 13:44:42;;;;;;;2.65;0.90;;;;;;;9.07;78.22;97488.91;4958730;28;20051;-66